Pagrindinis puslapis
METAR-TAF:

METAR-TAF

Oro uostai :

Savonlinna, Suomija

platuma: 61-57N, ilguma: 028-57E, Aukštis: 95 m

Dabartinis oras

Ataskaita buvo paskelbta 36 minutes, ne 07:50 UTC
Vėjas 6 kt iš Pietryčių
Temperatūra -5°C
Drėgmė 93%
Slėgis 1012 hPa
Matomumas 10 km arba daugiau
Su prošvaistėmis ne aukštis 1100 ft

METAR: EFSA 100750Z AUTO 14006KT 9999 BKN011 M05/M06 Q1012

Laikas: 10:26 (08:26 UTC)

Prognozė

Ataskaita buvo paskelbta 15 valandos ir 32 minutes, ne 16:54 UTC
Prognozė galioja nuo 09 metu 16 UTC su 09 metu 18 UTC
Vėjas 3 kt iš Rytų/Šiaurės Rytų
Matomumas 10 km arba daugiau
Išsisklaidę debesys ne aukštis 300 ft
Su prošvaistėmis ne aukštis 2000 ft
Laikinai
nuo 09 metu 16 UTC su 09 metu 18 UTC
Matomumas: 2500 m
Su prošvaistėmis ne aukštis 500 ft
sniegas

TAF: EFSA 091654Z 0916/0918 07003KT 9999 SCT003 BKN020 TEMPO 0916/0918 2500 -SN BKN005

Orai ataskaitas ir orų prognozės (METAR, TAF).

turimą stotys yra geltonos ir raudonos taškus žemėlapyje.

Perkelti pele per norėdami pamatyti stoties vardą.

Tada spustelėkite, norėdami matyti oro stebėjimo ir prognozės.

Norėdami pakeisti žemėlapį: spustelėkite ant žalios mygtukų su juodo kryžiaus žemyn,; žalią mygtuką su brūkšneliu, jei norite nutolinti; arba žalių rodyklių gretimoms žemėlapius.


METAR-TAF: